sensor_id;sensor_type;location;lat;lon;timestamp;P1;durP1;ratioP1;P2;durP2;ratioP2
52942;SDS011;38809;53.300;6.614;2023-04-24T00:01:43;4.67;;;3.40;;
52942;SDS011;38809;53.300;6.614;2023-04-24T00:04:09;5.43;;;3.70;;
52942;SDS011;38809;53.300;6.614;2023-04-24T00:06:36;4.57;;;3.33;;
52942;SDS011;38809;53.300;6.614;2023-04-24T00:09:05;5.22;;;3.78;;
52942;SDS011;38809;53.300;6.614;2023-04-24T00:11:30;4.90;;;3.65;;
52942;SDS011;38809;53.300;6.614;2023-04-24T00:13:56;5.22;;;3.72;;
52942;SDS011;38809;53.300;6.614;2023-04-24T00:16:22;5.78;;;4.00;;
52942;SDS011;38809;53.300;6.614;2023-04-24T00:18:48;5.22;;;3.63;;
52942;SDS011;38809;53.300;6.614;2023-04-24T00:21:14;4.60;;;3.60;;
52942;SDS011;38809;53.300;6.614;2023-04-24T00:23:42;4.93;;;3.42;;
52942;SDS011;38809;53.300;6.614;2023-04-24T00:26:09;5.00;;;3.85;;
52942;SDS011;38809;53.300;6.614;2023-04-24T00:28:34;4.80;;;3.65;;
52942;SDS011;38809;53.300;6.614;2023-04-24T00:31:00;4.80;;;3.72;;
52942;SDS011;38809;53.300;6.614;2023-04-24T00:33:26;4.72;;;3.50;;
52942;SDS011;38809;53.300;6.614;2023-04-24T00:35:52;4.30;;;3.50;;
52942;SDS011;38809;53.300;6.614;2023-04-24T00:38:17;4.88;;;3.22;;
52942;SDS011;38809;53.300;6.614;2023-04-24T00:40:43;4.95;;;3.47;;
52942;SDS011;38809;53.300;6.614;2023-04-24T00:43:09;4.90;;;3.13;;
52942;SDS011;38809;53.300;6.614;2023-04-24T00:45:36;4.10;;;3.13;;
52942;SDS011;38809;53.300;6.614;2023-04-24T00:48:01;3.72;;;2.88;;
52942;SDS011;38809;53.300;6.614;2023-04-24T00:50:28;3.97;;;2.67;;
52942;SDS011;38809;53.300;6.614;2023-04-24T00:52:54;3.47;;;2.22;;
52942;SDS011;38809;53.300;6.614;2023-04-24T00:55:20;3.35;;;2.20;;
52942;SDS011;38809;53.300;6.614;2023-04-24T00:57:46;2.60;;;1.90;;
52942;SDS011;38809;53.300;6.614;2023-04-24T01:00:13;2.42;;;1.63;;
52942;SDS011;38809;53.300;6.614;2023-04-24T01:02:40;2.03;;;1.50;;
52942;SDS011;38809;53.300;6.614;2023-04-24T01:05:10;2.53;;;1.40;;
52942;SDS011;38809;53.300;6.614;2023-04-24T01:07:43;2.17;;;1.20;;
52942;SDS011;38809;53.300;6.614;2023-04-24T01:10:11;1.65;;;1.20;;
52942;SDS011;38809;53.300;6.614;2023-04-24T01:12:38;2.38;;;1.42;;
52942;SDS011;38809;53.300;6.614;2023-04-24T01:15:04;1.95;;;1.23;;
52942;SDS011;38809;53.300;6.614;2023-04-24T01:17:31;2.95;;;1.30;;
52942;SDS011;38809;53.300;6.614;2023-04-24T01:19:57;3.35;;;1.17;;
52942;SDS011;38809;53.300;6.614;2023-04-24T01:22:25;1.90;;;1.13;;
52942;SDS011;38809;53.300;6.614;2023-04-24T01:24:51;2.03;;;1.02;;
52942;SDS011;38809;53.300;6.614;2023-04-24T01:27:18;1.83;;;1.10;;
52942;SDS011;38809;53.300;6.614;2023-04-24T01:29:45;2.55;;;1.00;;
52942;SDS011;38809;53.300;6.614;2023-04-24T01:32:12;1.60;;;0.93;;
52942;SDS011;38809;53.300;6.614;2023-04-24T01:34:38;1.63;;;1.02;;
52942;SDS011;38809;53.300;6.614;2023-04-24T01:37:05;1.60;;;0.90;;
52942;SDS011;38809;53.300;6.614;2023-04-24T01:39:31;1.92;;;1.00;;
52942;SDS011;38809;53.300;6.614;2023-04-24T01:41:58;1.40;;;0.95;;
52942;SDS011;38809;53.300;6.614;2023-04-24T01:44:25;2.35;;;1.08;;
52942;SDS011;38809;53.300;6.614;2023-04-24T01:46:51;2.03;;;0.88;;
52942;SDS011;38809;53.300;6.614;2023-04-24T01:49:19;1.55;;;1.08;;
52942;SDS011;38809;53.300;6.614;2023-04-24T01:51:45;1.80;;;0.90;;
52942;SDS011;38809;53.300;6.614;2023-04-24T01:54:11;1.50;;;0.90;;
52942;SDS011;38809;53.300;6.614;2023-04-24T01:56:39;1.40;;;0.90;;
52942;SDS011;38809;53.300;6.614;2023-04-24T01:59:07;1.60;;;0.98;;
52942;SDS011;38809;53.300;6.614;2023-04-24T02:01:35;1.60;;;1.00;;
52942;SDS011;38809;53.300;6.614;2023-04-24T02:04:02;1.63;;;1.00;;
52942;SDS011;38809;53.300;6.614;2023-04-24T02:06:29;1.50;;;0.90;;
52942;SDS011;38809;53.300;6.614;2023-04-24T02:08:56;1.58;;;0.90;;
52942;SDS011;38809;53.300;6.614;2023-04-24T02:11:22;1.92;;;1.20;;
52942;SDS011;38809;53.300;6.614;2023-04-24T02:13:48;1.70;;;1.02;;
52942;SDS011;38809;53.300;6.614;2023-04-24T02:16:15;2.50;;;1.02;;
52942;SDS011;38809;53.300;6.614;2023-04-24T02:18:41;2.03;;;1.30;;
52942;SDS011;38809;53.300;6.614;2023-04-24T02:21:06;1.83;;;1.40;;
52942;SDS011;38809;53.300;6.614;2023-04-24T02:23:32;1.65;;;1.08;;
52942;SDS011;38809;53.300;6.614;2023-04-24T02:25:58;2.03;;;1.37;;
52942;SDS011;38809;53.300;6.614;2023-04-24T02:28:23;1.97;;;1.47;;
52942;SDS011;38809;53.300;6.614;2023-04-24T02:30:49;2.30;;;1.48;;
52942;SDS011;38809;53.300;6.614;2023-04-24T02:33:15;2.30;;;1.70;;
52942;SDS011;38809;53.300;6.614;2023-04-24T02:35:41;2.17;;;1.65;;
52942;SDS011;38809;53.300;6.614;2023-04-24T02:38:07;2.13;;;1.42;;
52942;SDS011;38809;53.300;6.614;2023-04-24T02:40:32;2.00;;;1.58;;
52942;SDS011;38809;53.300;6.614;2023-04-24T02:42:58;2.85;;;1.90;;
52942;SDS011;38809;53.300;6.614;2023-04-24T02:45:23;2.40;;;1.70;;
52942;SDS011;38809;53.300;6.614;2023-04-24T02:47:49;2.70;;;2.25;;
52942;SDS011;38809;53.300;6.614;2023-04-24T02:50:15;3.13;;;2.20;;
52942;SDS011;38809;53.300;6.614;2023-04-24T02:52:41;3.33;;;2.13;;
52942;SDS011;38809;53.300;6.614;2023-04-24T02:55:06;3.13;;;2.60;;
52942;SDS011;38809;53.300;6.614;2023-04-24T02:57:33;3.20;;;2.50;;
52942;SDS011;38809;53.300;6.614;2023-04-24T02:59:59;3.92;;;3.38;;
52942;SDS011;38809;53.300;6.614;2023-04-24T03:02:24;3.33;;;2.90;;
52942;SDS011;38809;53.300;6.614;2023-04-24T03:04:50;4.15;;;2.80;;
52942;SDS011;38809;53.300;6.614;2023-04-24T03:07:16;3.63;;;3.05;;
52942;SDS011;38809;53.300;6.614;2023-04-24T03:09:41;3.72;;;3.30;;
52942;SDS011;38809;53.300;6.614;2023-04-24T03:12:07;3.93;;;3.07;;
52942;SDS011;38809;53.300;6.614;2023-04-24T03:14:33;3.70;;;3.03;;
52942;SDS011;38809;53.300;6.614;2023-04-24T03:16:59;4.13;;;3.65;;
52942;SDS011;38809;53.300;6.614;2023-04-24T03:19:25;4.22;;;2.88;;
52942;SDS011;38809;53.300;6.614;2023-04-24T03:21:51;3.70;;;2.80;;
52942;SDS011;38809;53.300;6.614;2023-04-24T03:24:16;4.55;;;3.17;;
52942;SDS011;38809;53.300;6.614;2023-04-24T03:26:42;4.83;;;4.00;;
52942;SDS011;38809;53.300;6.614;2023-04-24T03:29:08;4.57;;;3.65;;
52942;SDS011;38809;53.300;6.614;2023-04-24T03:31:33;7.00;;;3.90;;
52942;SDS011;38809;53.300;6.614;2023-04-24T03:33:59;5.00;;;4.10;;
52942;SDS011;38809;53.300;6.614;2023-04-24T03:36:25;5.07;;;3.80;;
52942;SDS011;38809;53.300;6.614;2023-04-24T03:38:51;6.13;;;4.03;;
52942;SDS011;38809;53.300;6.614;2023-04-24T03:41:16;5.05;;;3.85;;
52942;SDS011;38809;53.300;6.614;2023-04-24T03:43:42;5.03;;;4.00;;
52942;SDS011;38809;53.300;6.614;2023-04-24T03:46:08;4.68;;;4.00;;
52942;SDS011;38809;53.300;6.614;2023-04-24T03:48:34;6.43;;;4.63;;
52942;SDS011;38809;53.300;6.614;2023-04-24T03:51:00;5.40;;;4.55;;
52942;SDS011;38809;53.300;6.614;2023-04-24T03:53:26;5.53;;;4.35;;
52942;SDS011;38809;53.300;6.614;2023-04-24T03:55:52;6.23;;;4.50;;
52942;SDS011;38809;53.300;6.614;2023-04-24T03:58:18;5.80;;;4.75;;
52942;SDS011;38809;53.300;6.614;2023-04-24T04:00:44;6.30;;;5.35;;
52942;SDS011;38809;53.300;6.614;2023-04-24T04:03:11;7.85;;;5.72;;
52942;SDS011;38809;53.300;6.614;2023-04-24T04:05:38;7.20;;;5.70;;
52942;SDS011;38809;53.300;6.614;2023-04-24T04:08:04;6.35;;;5.13;;
52942;SDS011;38809;53.300;6.614;2023-04-24T04:10:30;6.67;;;5.43;;
52942;SDS011;38809;53.300;6.614;2023-04-24T04:12:55;8.82;;;6.03;;
52942;SDS011;38809;53.300;6.614;2023-04-24T04:15:21;7.30;;;6.20;;
52942;SDS011;38809;53.300;6.614;2023-04-24T04:17:47;9.80;;;6.33;;
52942;SDS011;38809;53.300;6.614;2023-04-24T04:20:12;7.80;;;6.50;;
52942;SDS011;38809;53.300;6.614;2023-04-24T04:22:38;8.60;;;7.63;;
52942;SDS011;38809;53.300;6.614;2023-04-24T04:25:04;8.93;;;7.07;;
52942;SDS011;38809;53.300;6.614;2023-04-24T04:27:30;8.20;;;7.38;;
52942;SDS011;38809;53.300;6.614;2023-04-24T04:29:59;9.02;;;7.60;;
52942;SDS011;38809;53.300;6.614;2023-04-24T04:32:32;9.00;;;7.93;;
52942;SDS011;38809;53.300;6.614;2023-04-24T04:34:59;10.30;;;9.20;;
52942;SDS011;38809;53.300;6.614;2023-04-24T04:37:37;8.70;;;7.80;;
52942;SDS011;38809;53.300;6.614;2023-04-24T04:40:03;9.13;;;7.70;;
52942;SDS011;38809;53.300;6.614;2023-04-24T04:42:32;9.20;;;7.85;;
52942;SDS011;38809;53.300;6.614;2023-04-24T04:44:59;10.18;;;7.88;;
52942;SDS011;38809;53.300;6.614;2023-04-24T04:47:25;8.50;;;7.53;;
52942;SDS011;38809;53.300;6.614;2023-04-24T04:49:53;9.40;;;7.47;;
52942;SDS011;38809;53.300;6.614;2023-04-24T04:52:19;10.50;;;8.23;;
52942;SDS011;38809;53.300;6.614;2023-04-24T04:54:49;10.55;;;7.63;;
52942;SDS011;38809;53.300;6.614;2023-04-24T04:57:15;9.65;;;7.90;;
52942;SDS011;38809;53.300;6.614;2023-04-24T04:59:41;9.70;;;8.63;;
52942;SDS011;38809;53.300;6.614;2023-04-24T05:02:07;8.85;;;7.47;;
52942;SDS011;38809;53.300;6.614;2023-04-24T05:04:33;7.38;;;6.40;;
52942;SDS011;38809;53.300;6.614;2023-04-24T05:06:58;6.30;;;4.15;;
52942;SDS011;38809;53.300;6.614;2023-04-24T05:09:24;5.78;;;3.97;;
52942;SDS011;38809;53.300;6.614;2023-04-24T05:11:52;4.22;;;3.30;;
52942;SDS011;38809;53.300;6.614;2023-04-24T05:14:18;4.03;;;2.80;;
52942;SDS011;38809;53.300;6.614;2023-04-24T05:16:44;4.25;;;3.15;;
52942;SDS011;38809;53.300;6.614;2023-04-24T05:19:10;3.88;;;2.67;;
52942;SDS011;38809;53.300;6.614;2023-04-24T05:21:37;3.42;;;2.45;;
52942;SDS011;38809;53.300;6.614;2023-04-24T05:24:04;3.85;;;2.72;;
52942;SDS011;38809;53.300;6.614;2023-04-24T05:26:30;4.55;;;3.25;;
52942;SDS011;38809;53.300;6.614;2023-04-24T05:28:56;4.00;;;2.70;;
52942;SDS011;38809;53.300;6.614;2023-04-24T05:31:21;5.17;;;3.17;;
52942;SDS011;38809;53.300;6.614;2023-04-24T05:33:47;4.63;;;3.20;;
52942;SDS011;38809;53.300;6.614;2023-04-24T05:36:13;5.50;;;3.63;;
52942;SDS011;38809;53.300;6.614;2023-04-24T05:38:39;6.30;;;4.03;;
52942;SDS011;38809;53.300;6.614;2023-04-24T05:41:05;7.20;;;4.13;;
52942;SDS011;38809;53.300;6.614;2023-04-24T05:43:30;6.03;;;3.87;;
52942;SDS011;38809;53.300;6.614;2023-04-24T05:45:56;7.20;;;4.32;;
52942;SDS011;38809;53.300;6.614;2023-04-24T05:48:22;6.53;;;4.10;;
52942;SDS011;38809;53.300;6.614;2023-04-24T05:50:48;6.35;;;4.03;;
52942;SDS011;38809;53.300;6.614;2023-04-24T05:53:14;5.07;;;3.33;;
52942;SDS011;38809;53.300;6.614;2023-04-24T05:55:39;4.65;;;3.40;;
52942;SDS011;38809;53.300;6.614;2023-04-24T05:58:05;3.85;;;2.92;;
52942;SDS011;38809;53.300;6.614;2023-04-24T06:00:31;4.90;;;2.67;;
52942;SDS011;38809;53.300;6.614;2023-04-24T06:02:57;6.50;;;3.17;;
52942;SDS011;38809;53.300;6.614;2023-04-24T06:05:23;4.07;;;2.75;;
52942;SDS011;38809;53.300;6.614;2023-04-24T06:07:49;4.13;;;3.03;;
52942;SDS011;38809;53.300;6.614;2023-04-24T06:10:15;4.47;;;3.25;;
52942;SDS011;38809;53.300;6.614;2023-04-24T06:12:41;5.15;;;3.40;;
52942;SDS011;38809;53.300;6.614;2023-04-24T06:15:07;6.03;;;4.00;;
52942;SDS011;38809;53.300;6.614;2023-04-24T06:17:33;5.88;;;4.00;;
52942;SDS011;38809;53.300;6.614;2023-04-24T06:19:59;5.63;;;3.75;;
52942;SDS011;38809;53.300;6.614;2023-04-24T06:22:25;5.28;;;3.97;;
52942;SDS011;38809;53.300;6.614;2023-04-24T06:24:50;4.27;;;3.30;;
52942;SDS011;38809;53.300;6.614;2023-04-24T06:27:16;6.23;;;3.20;;
52942;SDS011;38809;53.300;6.614;2023-04-24T06:29:42;5.78;;;3.60;;
52942;SDS011;38809;53.300;6.614;2023-04-24T06:32:07;5.35;;;3.40;;
52942;SDS011;38809;53.300;6.614;2023-04-24T06:34:33;4.83;;;2.93;;
52942;SDS011;38809;53.300;6.614;2023-04-24T06:36:59;5.82;;;2.95;;
52942;SDS011;38809;53.300;6.614;2023-04-24T06:39:25;4.90;;;3.00;;
52942;SDS011;38809;53.300;6.614;2023-04-24T06:41:51;3.97;;;2.88;;
52942;SDS011;38809;53.300;6.614;2023-04-24T06:44:16;4.53;;;2.43;;
52942;SDS011;38809;53.300;6.614;2023-04-24T06:46:42;3.97;;;2.20;;
52942;SDS011;38809;53.300;6.614;2023-04-24T06:49:09;3.03;;;2.17;;
52942;SDS011;38809;53.300;6.614;2023-04-24T06:54:00;3.20;;;1.58;;
52942;SDS011;38809;53.300;6.614;2023-04-24T06:56:26;3.42;;;1.67;;
52942;SDS011;38809;53.300;6.614;2023-04-24T06:58:54;2.92;;;1.40;;
52942;SDS011;38809;53.300;6.614;2023-04-24T07:01:19;4.15;;;1.33;;
52942;SDS011;38809;53.300;6.614;2023-04-24T07:03:45;2.45;;;1.30;;
52942;SDS011;38809;53.300;6.614;2023-04-24T07:06:11;3.80;;;1.20;;
52942;SDS011;38809;53.300;6.614;2023-04-24T07:08:37;2.30;;;1.23;;
52942;SDS011;38809;53.300;6.614;2023-04-24T07:11:03;2.22;;;1.30;;
52942;SDS011;38809;53.300;6.614;2023-04-24T07:13:29;2.00;;;1.10;;
52942;SDS011;38809;53.300;6.614;2023-04-24T07:15:55;2.72;;;1.30;;
52942;SDS011;38809;53.300;6.614;2023-04-24T07:18:21;3.17;;;1.27;;
52942;SDS011;38809;53.300;6.614;2023-04-24T07:20:47;2.38;;;1.25;;
52942;SDS011;38809;53.300;6.614;2023-04-24T07:23:15;3.70;;;1.50;;
52942;SDS011;38809;53.300;6.614;2023-04-24T07:25:41;2.58;;;1.30;;
52942;SDS011;38809;53.300;6.614;2023-04-24T07:28:07;3.20;;;1.48;;
52942;SDS011;38809;53.300;6.614;2023-04-24T07:30:33;2.25;;;1.35;;
52942;SDS011;38809;53.300;6.614;2023-04-24T07:32:59;2.35;;;1.42;;
52942;SDS011;38809;53.300;6.614;2023-04-24T07:35:25;2.30;;;1.08;;
52942;SDS011;38809;53.300;6.614;2023-04-24T07:37:54;4.88;;;1.70;;
52942;SDS011;38809;53.300;6.614;2023-04-24T07:40:20;2.65;;;1.63;;
52942;SDS011;38809;53.300;6.614;2023-04-24T07:45:13;2.75;;;1.85;;
52942;SDS011;38809;53.300;6.614;2023-04-24T07:47:43;4.63;;;1.85;;
52942;SDS011;38809;53.300;6.614;2023-04-24T07:50:10;4.38;;;2.20;;
52942;SDS011;38809;53.300;6.614;2023-04-24T07:52:36;3.88;;;2.15;;
52942;SDS011;38809;53.300;6.614;2023-04-24T07:55:02;4.83;;;2.43;;
52942;SDS011;38809;53.300;6.614;2023-04-24T07:57:28;4.22;;;2.92;;
52942;SDS011;38809;53.300;6.614;2023-04-24T07:59:54;4.95;;;3.15;;
52942;SDS011;38809;53.300;6.614;2023-04-24T08:02:20;5.57;;;3.55;;
52942;SDS011;38809;53.300;6.614;2023-04-24T08:04:51;8.43;;;3.70;;
52942;SDS011;38809;53.300;6.614;2023-04-24T08:07:18;6.60;;;4.43;;
52942;SDS011;38809;53.300;6.614;2023-04-24T08:09:44;8.23;;;4.70;;
52942;SDS011;38809;53.300;6.614;2023-04-24T08:12:10;6.25;;;4.15;;
52942;SDS011;38809;53.300;6.614;2023-04-24T08:14:36;6.73;;;4.87;;
52942;SDS011;38809;53.300;6.614;2023-04-24T08:17:01;9.67;;;6.00;;
52942;SDS011;38809;53.300;6.614;2023-04-24T08:21:54;10.25;;;6.97;;
52942;SDS011;38809;53.300;6.614;2023-04-24T08:24:20;13.05;;;7.90;;
52942;SDS011;38809;53.300;6.614;2023-04-24T08:26:45;11.98;;;7.93;;
52942;SDS011;38809;53.300;6.614;2023-04-24T08:29:11;13.85;;;8.75;;
52942;SDS011;38809;53.300;6.614;2023-04-24T08:31:37;10.40;;;7.53;;
52942;SDS011;38809;53.300;6.614;2023-04-24T08:34:04;13.52;;;7.90;;
52942;SDS011;38809;53.300;6.614;2023-04-24T08:36:30;12.48;;;8.75;;
52942;SDS011;38809;53.300;6.614;2023-04-24T08:38:56;14.85;;;8.52;;
52942;SDS011;38809;53.300;6.614;2023-04-24T08:41:22;12.70;;;8.38;;
52942;SDS011;38809;53.300;6.614;2023-04-24T08:43:51;11.65;;;8.15;;
52942;SDS011;38809;53.300;6.614;2023-04-24T08:46:17;15.00;;;7.57;;
52942;SDS011;38809;53.300;6.614;2023-04-24T08:48:45;12.60;;;7.45;;
52942;SDS011;38809;53.300;6.614;2023-04-24T08:51:11;10.98;;;7.07;;
52942;SDS011;38809;53.300;6.614;2023-04-24T08:53:37;14.73;;;7.83;;
52942;SDS011;38809;53.300;6.614;2023-04-24T08:56:03;10.38;;;7.35;;
52942;SDS011;38809;53.300;6.614;2023-04-24T08:58:29;15.60;;;7.32;;
52942;SDS011;38809;53.300;6.614;2023-04-24T09:03:21;12.90;;;7.13;;
52942;SDS011;38809;53.300;6.614;2023-04-24T09:05:48;12.25;;;7.78;;
52942;SDS011;38809;53.300;6.614;2023-04-24T09:08:16;12.02;;;6.90;;
52942;SDS011;38809;53.300;6.614;2023-04-24T09:10:43;11.55;;;7.10;;
52942;SDS011;38809;53.300;6.614;2023-04-24T09:13:09;11.57;;;7.80;;
52942;SDS011;38809;53.300;6.614;2023-04-24T09:18:01;8.85;;;5.63;;
52942;SDS011;38809;53.300;6.614;2023-04-24T09:20:27;12.43;;;6.50;;
52942;SDS011;38809;53.300;6.614;2023-04-24T09:22:54;8.38;;;5.45;;
52942;SDS011;38809;53.300;6.614;2023-04-24T09:25:21;9.02;;;5.53;;
52942;SDS011;38809;53.300;6.614;2023-04-24T09:27:47;9.68;;;5.82;;
52942;SDS011;38809;53.300;6.614;2023-04-24T09:30:13;14.38;;;5.78;;
52942;SDS011;38809;53.300;6.614;2023-04-24T09:32:45;12.50;;;5.95;;
52942;SDS011;38809;53.300;6.614;2023-04-24T09:35:12;9.07;;;5.07;;
52942;SDS011;38809;53.300;6.614;2023-04-24T09:37:43;7.57;;;5.38;;
52942;SDS011;38809;53.300;6.614;2023-04-24T09:40:11;9.73;;;5.20;;
52942;SDS011;38809;53.300;6.614;2023-04-24T09:42:39;8.40;;;4.95;;
52942;SDS011;38809;53.300;6.614;2023-04-24T09:45:08;6.88;;;5.13;;
52942;SDS011;38809;53.300;6.614;2023-04-24T09:47:38;8.52;;;4.97;;
52942;SDS011;38809;53.300;6.614;2023-04-24T09:50:11;7.80;;;4.70;;
52942;SDS011;38809;53.300;6.614;2023-04-24T09:52:44;11.25;;;4.65;;
52942;SDS011;38809;53.300;6.614;2023-04-24T09:55:30;8.63;;;4.80;;
52942;SDS011;38809;53.300;6.614;2023-04-24T09:57:57;9.95;;;4.82;;
52942;SDS011;38809;53.300;6.614;2023-04-24T10:00:26;9.15;;;4.30;;
52942;SDS011;38809;53.300;6.614;2023-04-24T10:02:59;8.43;;;4.35;;
52942;SDS011;38809;53.300;6.614;2023-04-24T10:05:29;10.77;;;4.35;;
52942;SDS011;38809;53.300;6.614;2023-04-24T10:08:00;7.65;;;3.70;;
52942;SDS011;38809;53.300;6.614;2023-04-24T10:10:28;9.10;;;3.90;;
52942;SDS011;38809;53.300;6.614;2023-04-24T10:12:55;8.80;;;4.38;;
52942;SDS011;38809;53.300;6.614;2023-04-24T10:15:21;7.60;;;4.07;;
52942;SDS011;38809;53.300;6.614;2023-04-24T10:17:50;7.20;;;3.28;;
52942;SDS011;38809;53.300;6.614;2023-04-24T10:20:20;5.30;;;3.10;;
52942;SDS011;38809;53.300;6.614;2023-04-24T10:22:48;4.85;;;3.13;;
52942;SDS011;38809;53.300;6.614;2023-04-24T10:25:22;7.88;;;3.10;;
52942;SDS011;38809;53.300;6.614;2023-04-24T10:27:50;6.93;;;3.50;;
52942;SDS011;38809;53.300;6.614;2023-04-24T10:30:18;5.35;;;2.53;;
52942;SDS011;38809;53.300;6.614;2023-04-24T10:32:44;8.23;;;2.60;;
52942;SDS011;38809;53.300;6.614;2023-04-24T10:35:15;4.07;;;2.47;;
52942;SDS011;38809;53.300;6.614;2023-04-24T10:37:44;6.35;;;2.45;;
52942;SDS011;38809;53.300;6.614;2023-04-24T10:40:11;5.40;;;2.67;;
52942;SDS011;38809;53.300;6.614;2023-04-24T10:42:42;4.28;;;2.40;;
52942;SDS011;38809;53.300;6.614;2023-04-24T10:45:16;3.50;;;2.10;;
52942;SDS011;38809;53.300;6.614;2023-04-24T10:47:50;8.48;;;2.65;;
52942;SDS011;38809;53.300;6.614;2023-04-24T10:50:19;5.60;;;2.20;;
52942;SDS011;38809;53.300;6.614;2023-04-24T10:52:45;6.43;;;2.50;;
52942;SDS011;38809;53.300;6.614;2023-04-24T10:55:14;5.05;;;2.40;;
52942;SDS011;38809;53.300;6.614;2023-04-24T10:58:00;3.80;;;1.85;;
52942;SDS011;38809;53.300;6.614;2023-04-24T11:00:28;5.47;;;1.75;;
52942;SDS011;38809;53.300;6.614;2023-04-24T11:02:54;6.18;;;2.03;;
52942;SDS011;38809;53.300;6.614;2023-04-24T11:05:21;6.97;;;2.33;;
52942;SDS011;38809;53.300;6.614;2023-04-24T11:10:54;3.92;;;1.70;;
52942;SDS011;38809;53.300;6.614;2023-04-24T11:13:25;3.70;;;2.00;;
52942;SDS011;38809;53.300;6.614;2023-04-24T11:16:35;3.88;;;1.52;;
52942;SDS011;38809;53.300;6.614;2023-04-24T11:19:07;3.93;;;1.60;;
52942;SDS011;38809;53.300;6.614;2023-04-24T11:21:40;4.60;;;1.40;;
52942;SDS011;38809;53.300;6.614;2023-04-24T11:26:55;5.18;;;1.65;;
52942;SDS011;38809;53.300;6.614;2023-04-24T11:29:43;4.18;;;1.33;;
52942;SDS011;38809;53.300;6.614;2023-04-24T11:34:54;3.45;;;1.33;;
52942;SDS011;38809;53.300;6.614;2023-04-24T11:37:21;3.42;;;1.13;;
52942;SDS011;38809;53.300;6.614;2023-04-24T11:39:55;2.97;;;1.70;;
52942;SDS011;38809;53.300;6.614;2023-04-24T11:42:22;3.85;;;1.50;;
52942;SDS011;38809;53.300;6.614;2023-04-24T11:44:49;6.55;;;2.15;;
52942;SDS011;38809;53.300;6.614;2023-04-24T11:47:15;5.05;;;1.70;;
52942;SDS011;38809;53.300;6.614;2023-04-24T11:49:41;5.60;;;1.50;;
52942;SDS011;38809;53.300;6.614;2023-04-24T11:52:06;4.82;;;1.20;;
52942;SDS011;38809;53.300;6.614;2023-04-24T11:54:32;3.95;;;1.20;;
52942;SDS011;38809;53.300;6.614;2023-04-24T11:56:58;4.53;;;1.42;;
52942;SDS011;38809;53.300;6.614;2023-04-24T11:59:24;5.13;;;1.20;;
52942;SDS011;38809;53.300;6.614;2023-04-24T12:01:50;4.73;;;1.20;;
52942;SDS011;38809;53.300;6.614;2023-04-24T12:04:16;4.70;;;1.13;;
52942;SDS011;38809;53.300;6.614;2023-04-24T12:07:01;4.38;;;1.15;;
52942;SDS011;38809;53.300;6.614;2023-04-24T12:09:28;9.30;;;1.38;;
52942;SDS011;38809;53.300;6.614;2023-04-24T12:11:55;4.07;;;1.20;;
52942;SDS011;38809;53.300;6.614;2023-04-24T12:14:24;2.50;;;1.40;;
52942;SDS011;38809;53.300;6.614;2023-04-24T12:16:50;4.72;;;1.55;;
52942;SDS011;38809;53.300;6.614;2023-04-24T12:19:23;2.92;;;1.30;;
52942;SDS011;38809;53.300;6.614;2023-04-24T12:22:02;4.07;;;1.20;;
52942;SDS011;38809;53.300;6.614;2023-04-24T12:24:30;5.57;;;1.23;;
52942;SDS011;38809;53.300;6.614;2023-04-24T12:26:56;6.88;;;1.30;;
52942;SDS011;38809;53.300;6.614;2023-04-24T12:29:22;5.55;;;1.77;;
52942;SDS011;38809;53.300;6.614;2023-04-24T12:31:49;9.95;;;1.60;;
52942;SDS011;38809;53.300;6.614;2023-04-24T12:34:19;7.55;;;1.52;;
52942;SDS011;38809;53.300;6.614;2023-04-24T12:36:47;4.45;;;1.30;;
52942;SDS011;38809;53.300;6.614;2023-04-24T12:39:16;9.85;;;1.63;;
52942;SDS011;38809;53.300;6.614;2023-04-24T12:41:56;6.80;;;1.35;;
52942;SDS011;38809;53.300;6.614;2023-04-24T12:44:31;2.90;;;1.10;;
52942;SDS011;38809;53.300;6.614;2023-04-24T12:46:59;3.72;;;1.17;;
52942;SDS011;38809;53.300;6.614;2023-04-24T12:51:51;4.70;;;1.15;;
52942;SDS011;38809;53.300;6.614;2023-04-24T12:54:17;4.30;;;1.27;;
52942;SDS011;38809;53.300;6.614;2023-04-24T12:56:43;4.95;;;1.45;;
52942;SDS011;38809;53.300;6.614;2023-04-24T12:59:09;2.30;;;1.00;;
52942;SDS011;38809;53.300;6.614;2023-04-24T13:01:35;4.67;;;1.13;;
52942;SDS011;38809;53.300;6.614;2023-04-24T13:04:00;3.05;;;1.10;;
52942;SDS011;38809;53.300;6.614;2023-04-24T13:06:26;5.50;;;0.87;;
52942;SDS011;38809;53.300;6.614;2023-04-24T13:08:52;5.00;;;1.00;;
52942;SDS011;38809;53.300;6.614;2023-04-24T13:11:20;4.47;;;0.80;;
52942;SDS011;38809;53.300;6.614;2023-04-24T13:13:46;2.67;;;0.75;;
52942;SDS011;38809;53.300;6.614;2023-04-24T13:16:12;2.95;;;0.55;;
52942;SDS011;38809;53.300;6.614;2023-04-24T13:18:38;2.28;;;0.70;;
52942;SDS011;38809;53.300;6.614;2023-04-24T13:21:04;1.48;;;0.60;;
52942;SDS011;38809;53.300;6.614;2023-04-24T13:23:30;2.22;;;0.60;;
52942;SDS011;38809;53.300;6.614;2023-04-24T13:25:55;2.33;;;0.63;;
52942;SDS011;38809;53.300;6.614;2023-04-24T13:28:24;4.07;;;0.80;;
52942;SDS011;38809;53.300;6.614;2023-04-24T13:30:50;4.78;;;0.80;;
52942;SDS011;38809;53.300;6.614;2023-04-24T13:33:16;4.45;;;1.10;;
52942;SDS011;38809;53.300;6.614;2023-04-24T13:35:42;2.83;;;0.90;;
52942;SDS011;38809;53.300;6.614;2023-04-24T13:38:07;3.00;;;0.68;;
52942;SDS011;38809;53.300;6.614;2023-04-24T13:40:33;2.47;;;0.70;;
52942;SDS011;38809;53.300;6.614;2023-04-24T13:42:59;5.63;;;1.00;;
52942;SDS011;38809;53.300;6.614;2023-04-24T13:47:51;2.00;;;0.70;;
52942;SDS011;38809;53.300;6.614;2023-04-24T13:50:18;2.15;;;0.60;;
52942;SDS011;38809;53.300;6.614;2023-04-24T13:52:45;2.05;;;0.50;;
52942;SDS011;38809;53.300;6.614;2023-04-24T13:55:10;2.95;;;0.77;;
52942;SDS011;38809;53.300;6.614;2023-04-24T13:57:36;1.45;;;0.68;;
52942;SDS011;38809;53.300;6.614;2023-04-24T14:00:02;1.40;;;0.50;;
52942;SDS011;38809;53.300;6.614;2023-04-24T14:02:29;1.88;;;0.77;;
52942;SDS011;38809;53.300;6.614;2023-04-24T14:04:55;3.53;;;0.80;;
52942;SDS011;38809;53.300;6.614;2023-04-24T14:07:21;2.08;;;0.80;;
52942;SDS011;38809;53.300;6.614;2023-04-24T14:09:46;2.97;;;0.77;;
52942;SDS011;38809;53.300;6.614;2023-04-24T14:12:12;2.55;;;0.80;;
52942;SDS011;38809;53.300;6.614;2023-04-24T14:14:39;2.05;;;1.23;;
52942;SDS011;38809;53.300;6.614;2023-04-24T14:17:05;3.20;;;0.98;;
52942;SDS011;38809;53.300;6.614;2023-04-24T14:19:30;6.35;;;1.38;;
52942;SDS011;38809;53.300;6.614;2023-04-24T14:21:56;6.53;;;1.35;;
52942;SDS011;38809;53.300;6.614;2023-04-24T14:24:23;4.15;;;1.25;;
52942;SDS011;38809;53.300;6.614;2023-04-24T14:26:49;3.38;;;1.30;;
52942;SDS011;38809;53.300;6.614;2023-04-24T14:29:15;6.93;;;1.40;;
52942;SDS011;38809;53.300;6.614;2023-04-24T14:31:42;3.40;;;1.38;;
52942;SDS011;38809;53.300;6.614;2023-04-24T14:34:08;3.10;;;1.27;;
52942;SDS011;38809;53.300;6.614;2023-04-24T14:36:34;3.88;;;1.30;;
52942;SDS011;38809;53.300;6.614;2023-04-24T14:39:00;3.85;;;1.13;;
52942;SDS011;38809;53.300;6.614;2023-04-24T14:41:30;3.10;;;1.30;;
52942;SDS011;38809;53.300;6.614;2023-04-24T14:43:56;4.03;;;1.48;;
52942;SDS011;38809;53.300;6.614;2023-04-24T14:46:22;3.22;;;1.42;;
52942;SDS011;38809;53.300;6.614;2023-04-24T14:48:48;5.30;;;1.73;;
52942;SDS011;38809;53.300;6.614;2023-04-24T14:51:13;6.15;;;1.77;;
52942;SDS011;38809;53.300;6.614;2023-04-24T14:53:39;5.30;;;1.70;;
52942;SDS011;38809;53.300;6.614;2023-04-24T14:56:05;4.68;;;1.40;;
52942;SDS011;38809;53.300;6.614;2023-04-24T14:58:31;4.18;;;1.70;;
52942;SDS011;38809;53.300;6.614;2023-04-24T15:00:56;5.50;;;2.10;;
52942;SDS011;38809;53.300;6.614;2023-04-24T15:03:22;4.70;;;2.23;;
52942;SDS011;38809;53.300;6.614;2023-04-24T15:05:48;6.07;;;2.40;;
52942;SDS011;38809;53.300;6.614;2023-04-24T15:08:15;6.38;;;2.08;;
52942;SDS011;38809;53.300;6.614;2023-04-24T15:10:40;8.40;;;2.72;;